• Join FlightAware (Why Join?)
  • Login
  • US Flag 
06:10AM EDT


 

Airport Tracker/Info


-or-


 

Live Flight TrackerFlight Track Log ✈ CPZ5718 ✈ 01-Jul-2013 ✈ KALB - KMSP

Flight Track Log - Related Links

Times and Time Zones

All times are in EDT time to prevent confusion due to time zone crossing. See the CPZ5718 flight status page for this flight to view local times or setup timezone preferences in your user account.

Time Position Orientation Groundspeed Altitude Reporting Facility
EDT Latitude Longitude Course Direction KTS MPH feet Rate Location/Type
06:42AM 42.7694 -73.8089 281° West 140 161 1,100  Level Boston Center
06:43AM 42.8167 -73.8639 319° Northwest 228 262 2,800 2,040 Climbing Boston Center
06:44AM 42.8717 -73.9642 307° West 261 300 6,300 2,640 Climbing Boston Center
06:45AM 42.8422 -74.3860 283° West  Level FlightAware Approximate
06:45AM 42.9164 -74.0419 308° West 296 341 9,200  Level Boston Center
06:46AM 42.8677 -74.5344 324° Northwest  Level FlightAware Approximate
06:46AM 42.9733 -74.1397 309° West 296 341 11,000  Level Boston Center
06:47AM 42.9004 -74.6744 281° West  Level FlightAware Approximate
06:47AM 43.0322 -74.2353 310° West 337 388 12,500  Level Boston Center
06:48AM 43.1056 -74.3539 310° West 367 422 15,000 2,040 Climbing Boston Center
06:50AM 43.1642 -74.4556 308° West 374 430 17,100 1,860 Climbing Boston Center
06:51AM 43.2472 -74.5922 310° West 379 436 19,100 1,740 Climbing Boston Center
06:52AM 43.3008 -74.7167 301° West 379 436 20,700 1,500 Climbing Boston Center
06:53AM 43.2894 -74.8647 264° West 367 422 22,100 1,440 Climbing Boston Center
06:54AM 43.2758 -75.0153 263° West 375 432 23,600 1,800 Climbing Boston Center
06:55AM 43.2597 -75.1658 262° West 390 449 25,800 1,740 Climbing Boston Center
06:56AM 43.2431 -75.3361 262° West 390 449 27,800 1,320 Climbing Boston Center
06:57AM 43.2300 -75.5178 264° West 384 442 29,000 900 Climbing Boston Center
06:58AM 43.2322 -75.6661 271° West 384 442 29,600 780 Climbing Boston Center
06:59AM 43.2508 -75.8183 280° West 391 450 30,600 900 Climbing Boston Center
07:00AM 43.2628 -75.9731 276° West 397 457 31,500 900 Climbing Boston Center
07:02AM 43.2789 -76.2342 275° West 413 475 33,200 900 Climbing Cleveland Center
07:03AM 43.2886 -76.3844 275° West 408 470 34,000 840 Climbing Cleveland Center
07:04AM 43.2958 -76.5297 274° West 397 457 34,900 900 Climbing Cleveland Center
07:05AM 43.3050 -76.6775 275° West 392 451 35,800 540 Climbing Cleveland Center
07:06AM 43.3139 -76.8194 275° West 387 445 36,000 60 Climbing Cleveland Center
07:07AM 43.3314 -76.9697 279° West 387 445 36,000  Level Cleveland Center
07:08AM 43.3500 -77.1031 281° West 387 445 36,000  Level Cleveland Center
07:09AM 43.3756 -77.2614 283° West 411 473 36,000  Level Cleveland Center
07:10AM 43.4028 -77.4172 284° West 423 487 36,000  Level Cleveland Center
07:11AM 43.4278 -77.5761 282° West 423 487 36,000  Level Cleveland Center
07:11AM 43.4333 -77.6667 275° West 420 483 36,000  Level Toronto Center
07:12AM 43.4500 -77.8167 279° West 420 483 36,000  Level Toronto Center
07:13AM 43.4833 -77.9833 285° West 420 483 36,000  Level Toronto Center
07:14AM 43.5000 -78.1333 279° West 420 483 36,000  Level Toronto Center
07:15AM 43.5167 -78.3000 278° West 420 483 36,000  Level Toronto Center
07:16AM 43.5333 -78.4333 280° West 430 495 36,000  Level Toronto Center
07:17AM 43.5833 -78.6167 291° West 430 495 36,000  Level Toronto Center
07:18AM 43.6000 -78.7500 280° West 420 483 36,000  Level Toronto Center
07:19AM 43.6167 -78.9500 277° West 420 483 36,000  Level Toronto Center
07:20AM 43.6500 -79.0833 289° West 430 495 36,000  Level Toronto Center
07:21AM 43.6667 -79.2667 277° West 420 483 36,000  Level Toronto Center
07:22AM 43.6833 -79.4000 280° West 420 483 36,000  Level Toronto Center
07:23AM 43.7167 -79.5667 286° West 430 495 36,000  Level Toronto Center
07:24AM 43.7333 -79.7333 278° West 430 495 36,000  Level Toronto Center
07:25AM 43.7500 -79.8833 279° West 430 495 36,000  Level Toronto Center
07:26AM 43.7833 -80.0500 286° West 420 483 36,000  Level Toronto Center
07:27AM 43.8000 -80.2167 278° West 430 495 36,000  Level Toronto Center
07:28AM 43.8167 -80.3667 279° West 430 495 36,000  Level Toronto Center
07:29AM 43.8500 -80.5500 284° West 430 495 36,000  Level Toronto Center
07:30AM 43.8667 -80.7000 279° West 430 495 36,000  Level Toronto Center
07:31AM 43.8667 -80.8667 270° West 430 495 36,000  Level Toronto Center
07:32AM 43.8833 -81.0167 279° West 430 495 36,000  Level Toronto Center
07:33AM 43.9167 -81.1833 286° West 420 483 36,000  Level Toronto Center
07:34AM 43.9333 -81.3500 278° West 420 483 36,000  Level Toronto Center
07:35AM 43.9500 -81.5167 278° West 430 495 36,000  Level Toronto Center
07:36AM 43.9833 -81.6667 287° West 430 495 36,000  Level Toronto Center
07:37AM 44.0000 -81.8333 278° West 430 495 36,000  Level Toronto Center
07:38AM 44.0000 -82.0000 270° West 430 495 36,000  Level Toronto Center
07:39AM 44.0167 -82.1667 278° West 430 495 36,000  Level Toronto Center
07:40AM 44.0500 -82.3167 287° West 430 495 36,000  Level Toronto Center
07:41AM 44.0667 -82.4833 278° West 430 495 36,000  Level Toronto Center
07:42AM 44.0833 -82.6667 277° West 430 495 36,000  Level Toronto Center
07:43AM 44.1036 -82.7725 285° West 431 496 36,000  Level Minneapolis Center
07:44AM 44.1228 -82.9361 279° West 430 495 36,000  Level Minneapolis Center
07:45AM 44.1394 -83.1008 278° West 430 495 36,000  Level Minneapolis Center
07:46AM 44.1578 -83.2678 279° West 434 499 36,000  Level Minneapolis Center
07:47AM 44.1742 -83.4331 278° West 434 499 36,000  Level Minneapolis Center
07:48AM 44.1906 -83.5961 278° West 428 493 36,000  Level Minneapolis Center
07:49AM 44.2069 -83.7581 278° West 425 489 36,000  Level Minneapolis Center
07:50AM 44.2228 -83.9203 278° West 423 487 36,000 720 Level Minneapolis Center
07:51AM 44.2386 -84.0792 278° West 417 480 37,500 960 Climbing Minneapolis Center
07:52AM 44.2517 -84.2278 277° West 392 451 38,000 240 Climbing Minneapolis Center
07:53AM 44.2672 -84.3800 278° West 395 455 38,000  Level Minneapolis Center
07:54AM 44.2844 -84.5678 277° West 407 468 38,000  Level Minneapolis Center
07:55AM 44.2986 -84.7267 277° West 413 475 38,000  Level Minneapolis Center
07:56AM 44.3125 -84.8897 277° West 422 486 38,000  Level Minneapolis Center
07:57AM 44.3278 -85.0553 277° West 428 493 38,000  Level Minneapolis Center
07:58AM 44.3428 -85.2244 277° West 437 503 38,000  Level Minneapolis Center
07:59AM 44.3567 -85.3936 277° West 439 505 38,000  Level Minneapolis Center
08:00AM 44.3706 -85.5642 277° West 440 506 38,000  Level Minneapolis Center
08:01AM 44.3844 -85.7358 277° West 442 509 38,000  Level Minneapolis Center
08:02AM 44.3986 -85.9075 277° West 443 510 38,000  Level Minneapolis Center
08:03AM 44.4117 -86.0792 276° West 442 509 38,000  Level Minneapolis Center
08:04AM 44.4244 -86.2503 276° West 441 507 38,000  Level Minneapolis Center
08:05AM 44.4375 -86.4239 276° West 444 511 38,000  Level Minneapolis Center
08:06AM 44.4497 -86.5967 276° West 445 512 38,000  Level Minneapolis Center
08:07AM 44.4622 -86.7678 276° West 442 509 38,000  Level Minneapolis Center
08:08AM 44.4739 -86.9392 276° West 442 509 38,000  Level Minneapolis Center
08:09AM 44.4869 -87.1122 276° West 446 513 38,000  Level Minneapolis Center
08:10AM 44.4983 -87.2856 275° West 446 513 38,000  Level Minneapolis Center
08:11AM 44.5131 -87.4947 276° West 449 517 38,000  Level Minneapolis Center
08:12AM 44.5236 -87.6689 275° West 449 517 38,000  Level Minneapolis Center
08:14AM 44.5342 -87.8403 275° West 445 512 38,000  Level Minneapolis Center
08:15AM 44.5442 -88.0103 275° West 440 506 38,000 -180 Level Minneapolis Center
08:16AM 44.5547 -88.1817 275° West 441 507 37,700 -540 Descending Minneapolis Center
08:17AM 44.5733 -88.3517 279° West 445 512 37,000 -660 Descending Minneapolis Center
08:18AM 44.5928 -88.5183 279° West 437 503 36,400 -540 Descending Minneapolis Center
08:19AM 44.6119 -88.6839 279° West 433 498 36,000 -240 Descending Minneapolis Center
08:20AM 44.6344 -88.8800 279° West 436 502 36,000  Level Minneapolis Center
08:21AM 44.6883 -89.0369 296° West 449 517 36,000 -60 Level Minneapolis Center
08:22AM 44.7486 -89.1856 300° West 444 511 35,900 -420 Descending Minneapolis Center
08:23AM 44.8092 -89.3364 300° West 442 509 35,100 -840 Descending Minneapolis Center
08:24AM 44.8797 -89.5100 300° West 440 506 34,100 -900 Descending Minneapolis Center
08:25AM 44.9389 -89.6603 299° West 440 506 33,300 -840 Descending Minneapolis Center
08:26AM 45.0000 -89.8172 299° West 443 510 32,500 -660 Descending Minneapolis Center
08:27AM 45.0314 -89.9869 285° West 457 526 32,000 -300 Descending Minneapolis Center
08:28AM 45.0153 -90.1672 263° West 461 531 32,000  Level Minneapolis Center
08:29AM 44.9983 -90.3806 264° West 457 526 32,000 -120 Level Minneapolis Center
08:30AM 44.9825 -90.5497 263° West 439 505 31,800 -600 Descending Minneapolis Center
08:31AM 44.9689 -90.7164 263° West 429 494 30,800 -1,080 Descending Minneapolis Center
08:32AM 44.9542 -90.8767 263° West 417 480 29,700 -1,080 Descending Minneapolis Center
08:33AM 44.9367 -91.0489 262° West 417 480 28,700 -1,020 Descending Minneapolis Center
08:34AM 44.9211 -91.2083 262° West 414 476 27,700 -1,020 Descending Minneapolis Center
08:35AM 44.9078 -91.3678 263° West 412 474 26,700 -1,620 Descending Minneapolis Center
08:36AM 44.9028 -91.5253 267° West 406 467 24,500 -2,580 Descending Minneapolis Center
08:37AM 44.9375 -91.6894 287° West 432 497 21,500 -2,880 Descending Minneapolis Center
08:38AM 44.9656 -91.8428 285° West 412 474 18,700 -2,700 Descending Minneapolis Center
08:39AM 44.9942 -91.9906 285° West 395 455 16,000 -2,880 Descending Minneapolis Center
08:40AM 45.0269 -92.1636 285° West 380 437 12,800 -2,460 Descending Minneapolis Center
08:41AM 45.0472 -92.3017 282° West 365 420 11,000 -1,200 Descending Minneapolis Center
08:42AM 45.0272 -92.4328 258° West 340 391 10,400 -900 Descending Minneapolis Center
08:43AM 45.0128 -92.5244 257° West 308 354 9,200 -1,620 Descending Minneapolis Center
08:44AM 44.9542 -92.6347 233° Southwest 297 342 7,100 -1,080 Descending Minneapolis Center
08:45AM 44.9053 -92.7147 229° Southwest 270 311 7,000 -300 Descending Minneapolis Center
08:46AM 44.8611 -92.7861 229° Southwest 247 284 6,600 -1,080 Descending Minneapolis Center
08:47AM 44.8189 -92.8550 229° Southwest 235 270 4,800 -1,860 Descending Minneapolis Center
08:49AM 44.8142 -92.9531 266° West 211 243 2,900 -900 Descending Minneapolis Center
08:50AM 44.8153 -93.0253 271° West 189 217 3,000 60 Climbing Minneapolis Center